Time;durP1;ratioP1;P1;durP2;ratioP2;P2;SDS_P1;SDS_P2;PMS_P1;PMS_P2;Temp;Humidity;BMP_temperature;BMP_pressure;BME280_temperature;BME280_humidity;BME280_pressure;Samples;Min_cycle;Max_cycle;Signal;HPM_P1;HPM_P2
2022/05/03 00:00:03;;;;;;;6.03;5.07;;;;;;;;;;5005816;28;20209;-86
2022/05/03 00:03:24;;;;;;;5.90;4.43;;;;;;;;;;5017226;28;20182;-86
2022/05/03 00:07:13;;;;;;;6.93;4.73;;;;;;;;;;5016589;28;20217;-86
2022/05/03 00:10:28;;;;;;;5.13;4.33;;;;;;;;;;4985927;28;20182;-86
2022/05/03 00:13:41;;;;;;;5.20;4.63;;;;;;;;;;4986208;28;20630;-86
2022/05/03 00:16:45;;;;;;;5.67;4.73;;;;;;;;;;5016752;28;20228;-87
2022/05/03 00:19:51;;;;;;;4.83;4.40;;;;;;;;;;5036704;28;20201;-88
2022/05/03 00:22:55;;;;;;;5.53;4.97;;;;;;;;;;5036683;28;20185;-88
2022/05/03 00:26:00;;;;;;;5.43;4.87;;;;;;;;;;5013499;28;20234;-88
2022/05/03 00:29:05;;;;;;;5.43;4.77;;;;;;;;;;5036286;28;20182;-87
2022/05/03 00:32:10;;;;;;;5.17;4.60;;;;;;;;;;5036486;28;20173;-87
2022/05/03 00:35:16;;;;;;;5.63;5.03;;;;;;;;;;5035835;28;20224;-87
2022/05/03 00:38:19;;;;;;;8.43;5.30;;;;;;;;;;5036277;28;20548;-87
2022/05/03 00:41:29;;;;;;;6.13;5.53;;;;;;;;;;5013438;28;20177;-87
2022/05/03 00:45:16;;;;;;;7.50;6.13;;;;;;;;;;5047349;28;20185;-87
2022/05/03 00:48:43;;;;;;;6.87;5.27;;;;;;;;;;4996366;28;20202;-87
2022/05/03 00:52:00;;;;;;;5.93;5.03;;;;;;;;;;4996671;28;20519;-87
2022/05/03 00:55:31;;;;;;;7.97;5.90;;;;;;;;;;5007671;28;20222;-87
2022/05/03 00:58:44;;;;;;;7.97;6.27;;;;;;;;;;4974181;28;20218;-87
2022/05/03 01:02:05;;;;;;;7.23;5.40;;;;;;;;;;4973368;28;20182;-87
2022/05/03 01:05:10;;;;;;;7.13;6.13;;;;;;;;;;4984895;28;20213;-87
2022/05/03 01:08:29;;;;;;;7.03;5.20;;;;;;;;;;4974148;28;20179;-87
2022/05/03 01:11:53;;;;;;;7.03;5.57;;;;;;;;;;4996048;28;20185;-87
2022/05/03 01:15:22;;;;;;;6.30;5.13;;;;;;;;;;5037171;28;20213;-87
2022/05/03 01:18:50;;;;;;;10.23;6.03;;;;;;;;;;5035905;28;20644;-87
2022/05/03 01:22:27;;;;;;;5.73;5.10;;;;;;;;;;5040482;28;20190;-87
2022/05/03 01:25:58;;;;;;;7.60;5.60;;;;;;;;;;5007780;28;20230;-87
2022/05/03 01:29:25;;;;;;;6.93;6.17;;;;;;;;;;5014518;28;20188;-90
2022/05/03 01:32:31;;;;;;;7.93;6.13;;;;;;;;;;5012104;28;20645;-90
2022/05/03 01:35:38;;;;;;;6.30;5.67;;;;;;;;;;5004803;28;20229;-90
2022/05/03 01:39:04;;;;;;;6.73;6.03;;;;;;;;;;5004507;28;20189;-90
2022/05/03 01:42:37;;;;;;;8.27;5.60;;;;;;;;;;5011646;28;20189;-90
2022/05/03 01:45:43;;;;;;;6.47;5.70;;;;;;;;;;5018434;28;20218;-89
2022/05/03 01:52:52;;;;;;;8.10;5.93;;;;;;;;;;5016640;28;20193;-87
2022/05/03 01:56:14;;;;;;;6.17;5.27;;;;;;;;;;5014684;28;20217;-87
2022/05/03 01:59:31;;;;;;;8.33;6.63;;;;;;;;;;5003718;28;20214;-87
2022/05/03 02:02:56;;;;;;;6.07;5.27;;;;;;;;;;5016203;28;20538;-87
2022/05/03 02:06:12;;;;;;;5.67;4.87;;;;;;;;;;5036135;28;20565;-87
2022/05/03 02:09:25;;;;;;;5.87;4.73;;;;;;;;;;5035309;28;20188;-87
2022/05/03 02:12:30;;;;;;;6.17;5.53;;;;;;;;;;5045491;28;20184;-89
2022/05/03 02:15:39;;;;;;;7.07;5.97;;;;;;;;;;5030948;28;20225;-87
2022/05/03 02:18:58;;;;;;;6.47;5.10;;;;;;;;;;4994733;28;20186;-87
2022/05/03 02:22:31;;;;;;;6.20;5.43;;;;;;;;;;4983768;28;20182;-90
2022/05/03 02:25:37;;;;;;;5.97;5.37;;;;;;;;;;4994981;28;20593;-89
2022/05/03 02:28:44;;;;;;;6.60;5.40;;;;;;;;;;4994749;28;20182;-90
2022/05/03 02:32:09;;;;;;;6.23;5.63;;;;;;;;;;5003082;28;20182;-90
2022/05/03 02:35:19;;;;;;;7.10;6.17;;;;;;;;;;5002774;28;20230;-90
2022/05/03 02:38:36;;;;;;;6.47;5.83;;;;;;;;;;5000643;28;20184;-90
2022/05/03 02:41:42;;;;;;;7.37;6.13;;;;;;;;;;4994503;28;20179;-90
2022/05/03 02:44:48;;;;;;;6.10;5.50;;;;;;;;;;4983506;28;20218;-90
2022/05/03 02:48:15;;;;;;;6.87;5.60;;;;;;;;;;4994462;28;20186;-86
2022/05/03 02:51:22;;;;;;;6.13;5.20;;;;;;;;;;4983366;28;20178;-89
2022/05/03 02:54:53;;;;;;;6.13;5.00;;;;;;;;;;4971583;28;20190;-89
2022/05/03 02:58:05;;;;;;;6.27;5.40;;;;;;;;;;4987067;28;20567;-89
2022/05/03 03:01:49;;;;;;;10.13;5.93;;;;;;;;;;5014018;28;20213;-90
2022/05/03 03:05:13;;;;;;;6.90;5.60;;;;;;;;;;5017517;28;20213;-89
2022/05/03 03:08:21;;;;;;;12.50;6.37;;;;;;;;;;5033920;28;20185;-89
2022/05/03 03:11:39;;;;;;;6.67;5.97;;;;;;;;;;5033664;28;20173;-89
2022/05/03 03:14:46;;;;;;;8.83;6.60;;;;;;;;;;5033645;28;20702;-87
2022/05/03 03:17:51;;;;;;;10.70;7.50;;;;;;;;;;5032725;28;20196;-87
2022/05/03 03:20:58;;;;;;;10.30;6.93;;;;;;;;;;5033443;28;20209;-89
2022/05/03 03:24:05;;;;;;;15.43;7.40;;;;;;;;;;5017792;28;20196;-89
2022/05/03 03:27:11;;;;;;;16.13;6.37;;;;;;;;;;5054688;28;20188;-89
2022/05/03 03:30:16;;;;;;;8.87;6.47;;;;;;;;;;5043650;28;20177;-89
2022/05/03 03:33:22;;;;;;;12.37;7.30;;;;;;;;;;5025587;28;20187;-87
2022/05/03 03:36:28;;;;;;;9.93;7.63;;;;;;;;;;5050029;22;20233;-82
2022/05/03 03:39:32;;;;;;;35.63;8.10;;;;;;;;;;5009009;28;20213;-82
2022/05/03 03:42:37;;;;;;;35.63;8.87;;;;;;;;;;5014732;28;20185;-82
2022/05/03 03:45:41;;;;;;;15.63;8.37;;;;;;;;;;4975140;28;20222;-82
2022/05/03 03:48:45;;;;;;;25.97;8.63;;;;;;;;;;4981717;28;20194;-82
2022/05/03 03:51:50;;;;;;;10.90;7.87;;;;;;;;;;4995709;28;20174;-82
2022/05/03 03:54:57;;;;;;;10.10;7.83;;;;;;;;;;5005074;28;20194;-82
2022/05/03 03:58:02;;;;;;;9.83;7.47;;;;;;;;;;4983070;28;20186;-82
2022/05/03 04:01:08;;;;;;;8.03;7.23;;;;;;;;;;4994170;28;20221;-82
2022/05/03 04:04:12;;;;;;;8.17;6.97;;;;;;;;;;5005145;28;20194;-82
2022/05/03 04:07:17;;;;;;;9.27;7.27;;;;;;;;;;4971620;28;20221;-82
2022/05/03 04:10:21;;;;;;;8.10;6.70;;;;;;;;;;4994244;28;20178;-82
2022/05/03 04:13:25;;;;;;;8.53;7.03;;;;;;;;;;4983584;28;20253;-82
2022/05/03 04:16:29;;;;;;;8.87;7.47;;;;;;;;;;4993303;28;20557;-82
2022/05/03 04:19:35;;;;;;;12.40;7.73;;;;;;;;;;4993125;28;20214;-83
2022/05/03 04:22:39;;;;;;;9.80;7.23;;;;;;;;;;4982840;28;20178;-82
2022/05/03 04:25:43;;;;;;;9.33;7.57;;;;;;;;;;4994166;28;20214;-82
2022/05/03 04:28:47;;;;;;;8.87;7.40;;;;;;;;;;4993440;28;20553;-82
2022/05/03 04:31:51;;;;;;;8.13;6.97;;;;;;;;;;4982853;28;20182;-82
2022/05/03 04:34:56;;;;;;;8.40;7.50;;;;;;;;;;4993856;28;20194;-82
2022/05/03 04:38:00;;;;;;;9.70;7.40;;;;;;;;;;4997794;28;20191;-81
2022/05/03 04:41:04;;;;;;;9.70;7.13;;;;;;;;;;4986194;28;20213;-81
2022/05/03 04:44:08;;;;;;;7.57;6.70;;;;;;;;;;5010196;28;20186;-83
2022/05/03 04:47:12;;;;;;;7.77;6.60;;;;;;;;;;4982600;28;20213;-84
2022/05/03 04:50:17;;;;;;;8.37;7.07;;;;;;;;;;4974837;28;20198;-82
2022/05/03 04:53:22;;;;;;;11.40;8.17;;;;;;;;;;4974576;28;20637;-83
2022/05/03 04:56:27;;;;;;;10.67;8.13;;;;;;;;;;4976733;28;20217;-83
2022/05/03 04:59:31;;;;;;;7.17;6.40;;;;;;;;;;4987458;28;20187;-85
2022/05/03 05:02:37;;;;;;;7.87;6.80;;;;;;;;;;4995608;28;20186;-85
2022/05/03 05:05:41;;;;;;;6.83;6.13;;;;;;;;;;4969987;28;20214;-85
2022/05/03 05:08:45;;;;;;;8.10;6.63;;;;;;;;;;4988373;28;20194;-83
2022/05/03 05:11:49;;;;;;;6.77;5.50;;;;;;;;;;4988415;28;20179;-83
2022/05/03 05:14:54;;;;;;;7.33;6.40;;;;;;;;;;4998080;28;20190;-83
2022/05/03 05:17:58;;;;;;;10.83;9.57;;;;;;;;;;4986166;28;20178;-83
2022/05/03 05:21:02;;;;;;;7.23;6.53;;;;;;;;;;4987002;28;20210;-83
2022/05/03 05:24:10;;;;;;;7.57;6.03;;;;;;;;;;4961776;28;20198;-83
2022/05/03 05:27:14;;;;;;;6.60;5.90;;;;;;;;;;4996723;28;20225;-83
2022/05/03 05:30:18;;;;;;;6.37;5.77;;;;;;;;;;4987991;28;20194;-83
2022/05/03 05:33:22;;;;;;;6.57;5.87;;;;;;;;;;4992857;28;20194;-83
2022/05/03 05:36:27;;;;;;;7.47;5.37;;;;;;;;;;4986301;28;20233;-83
2022/05/03 05:39:31;;;;;;;17.70;5.07;;;;;;;;;;5007508;28;20182;-84
2022/05/03 05:42:35;;;;;;;6.87;5.57;;;;;;;;;;4972455;28;20536;-83
2022/05/03 05:45:39;;;;;;;6.80;5.03;;;;;;;;;;4984784;28;20222;-83
2022/05/03 05:48:45;;;;;;;6.13;5.53;;;;;;;;;;4995370;28;20195;-83
2022/05/03 05:51:50;;;;;;;6.20;5.33;;;;;;;;;;5007247;28;20186;-83
2022/05/03 05:54:54;;;;;;;8.17;5.97;;;;;;;;;;4984934;28;20523;-83
2022/05/03 05:57:58;;;;;;;18.27;10.83;;;;;;;;;;4995808;28;20194;-83
2022/05/03 06:01:03;;;;;;;9.50;7.70;;;;;;;;;;4973598;28;20218;-83
2022/05/03 06:04:08;;;;;;;7.30;6.43;;;;;;;;;;4973315;28;20193;-83
2022/05/03 06:07:12;;;;;;;6.87;6.17;;;;;;;;;;4996209;28;20218;-83
2022/05/03 06:10:16;;;;;;;7.00;6.30;;;;;;;;;;4984247;28;20193;-83
2022/05/03 06:13:20;;;;;;;7.60;6.90;;;;;;;;;;4984135;28;20190;-83
2022/05/03 06:16:24;;;;;;;7.67;6.77;;;;;;;;;;4983733;28;20221;-83
2022/05/03 06:19:28;;;;;;;7.10;6.23;;;;;;;;;;4983645;28;20190;-83
2022/05/03 06:22:33;;;;;;;10.30;8.43;;;;;;;;;;4995272;28;20182;-83
2022/05/03 06:25:37;;;;;;;8.23;7.43;;;;;;;;;;4986701;28;20218;-83
2022/05/03 06:28:42;;;;;;;8.40;7.60;;;;;;;;;;4986418;28;20194;-83
2022/05/03 06:31:46;;;;;;;8.40;7.23;;;;;;;;;;4994485;28;20202;-83
2022/05/03 06:34:51;;;;;;;9.70;8.50;;;;;;;;;;4991712;28;20534;-83
2022/05/03 06:37:55;;;;;;;9.97;8.87;;;;;;;;;;4972431;28;20170;-83
2022/05/03 06:41:00;;;;;;;11.00;9.80;;;;;;;;;;4994517;28;20210;-84
2022/05/03 06:44:04;;;;;;;11.83;9.50;;;;;;;;;;4972033;28;20194;-83
2022/05/03 06:47:08;;;;;;;10.10;9.07;;;;;;;;;;5005163;28;20225;-84
2022/05/03 06:50:14;;;;;;;11.40;9.83;;;;;;;;;;4983517;28;20221;-83
2022/05/03 06:53:18;;;;;;;10.10;9.10;;;;;;;;;;4983130;28;20194;-83
2022/05/03 06:56:23;;;;;;;10.33;8.87;;;;;;;;;;4963922;28;20218;-83
2022/05/03 06:59:27;;;;;;;9.87;8.87;;;;;;;;;;4966312;28;20202;-84
2022/05/03 07:02:32;;;;;;;8.90;8.00;;;;;;;;;;4982846;28;20185;-83
2022/05/03 07:05:36;;;;;;;9.63;7.73;;;;;;;;;;4993662;28;20217;-83
2022/05/03 07:08:41;;;;;;;9.67;8.63;;;;;;;;;;4982679;28;20653;-83
2022/05/03 07:11:45;;;;;;;10.07;7.93;;;;;;;;;;4974949;28;20631;-83
2022/05/03 07:14:50;;;;;;;9.20;8.10;;;;;;;;;;4975079;28;20178;-83
2022/05/03 07:24:39;;;;;;;10.80;9.70;;;;;;;;;;4963521;28;20191;-84
2022/05/03 07:27:46;;;;;;;12.47;10.20;;;;;;;;;;4972496;28;20186;-84
2022/05/03 07:30:51;;;;;;;9.80;8.80;;;;;;;;;;4974709;28;20641;-84
2022/05/03 07:33:56;;;;;;;10.13;9.07;;;;;;;;;;4974438;28;20515;-84
2022/05/03 07:37:00;;;;;;;9.83;8.83;;;;;;;;;;4979521;28;20221;-84
2022/05/03 07:40:06;;;;;;;11.63;9.03;;;;;;;;;;4994219;28;20202;-84
2022/05/03 07:43:10;;;;;;;10.07;9.07;;;;;;;;;;4971360;28;20194;-84
2022/05/03 07:46:14;;;;;;;10.40;9.17;;;;;;;;;;4982003;28;20214;-84
2022/05/03 07:49:18;;;;;;;10.47;9.47;;;;;;;;;;4981686;28;20572;-84
2022/05/03 07:52:22;;;;;;;10.07;8.53;;;;;;;;;;5004992;28;20182;-84
2022/05/03 07:55:26;;;;;;;10.43;9.33;;;;;;;;;;4982110;28;20197;-84
2022/05/03 07:58:31;;;;;;;10.20;8.87;;;;;;;;;;4974464;28;20661;-84
2022/05/03 08:01:39;;;;;;;8.43;7.53;;;;;;;;;;5004910;28;20210;-84
2022/05/03 08:04:44;;;;;;;8.43;7.47;;;;;;;;;;4981664;28;20191;-84
2022/05/03 08:07:48;;;;;;;7.60;6.90;;;;;;;;;;4980062;28;20206;-84
2022/05/03 08:10:52;;;;;;;8.93;7.37;;;;;;;;;;4966547;28;20178;-84
2022/05/03 08:13:56;;;;;;;6.83;6.13;;;;;;;;;;4975180;28;20518;-84
2022/05/03 08:17:01;;;;;;;7.50;6.70;;;;;;;;;;4997128;28;20218;-84
2022/05/03 08:20:05;;;;;;;7.57;6.13;;;;;;;;;;4966832;28;20191;-84
2022/05/03 08:23:09;;;;;;;7.43;6.73;;;;;;;;;;4992346;28;20186;-84
2022/05/03 08:26:15;;;;;;;8.37;7.10;;;;;;;;;;4974367;28;20217;-84
2022/05/03 08:29:19;;;;;;;6.90;6.10;;;;;;;;;;4996841;28;20530;-84
2022/05/03 08:32:23;;;;;;;8.57;7.27;;;;;;;;;;4985239;28;20186;-84
2022/05/03 08:35:28;;;;;;;6.73;6.13;;;;;;;;;;4996841;28;20198;-84
2022/05/03 08:42:06;;;;;;;8.50;6.07;;;;;;;;;;4996291;28;20219;-84
2022/05/03 08:45:10;;;;;;;6.67;6.07;;;;;;;;;;4973772;28;20195;-84
2022/05/03 08:48:16;;;;;;;9.73;6.13;;;;;;;;;;4996097;28;20182;-84
2022/05/03 08:51:22;;;;;;;5.80;5.30;;;;;;;;;;4984325;28;20194;-84
2022/05/03 08:54:28;;;;;;;6.10;5.43;;;;;;;;;;4985251;28;20550;-84
2022/05/03 08:57:32;;;;;;;7.30;6.03;;;;;;;;;;4984988;28;20221;-84
2022/05/03 09:00:36;;;;;;;6.27;5.30;;;;;;;;;;4976010;28;20242;-84
2022/05/03 09:03:41;;;;;;;5.17;4.67;;;;;;;;;;4974306;28;20183;-84
2022/05/03 09:06:47;;;;;;;5.50;4.90;;;;;;;;;;4946097;29;20223;-84
2022/05/03 09:09:53;;;;;;;7.17;5.53;;;;;;;;;;4946113;29;20187;-84
2022/05/03 09:13:18;;;;;;;6.80;5.30;;;;;;;;;;4946539;29;20171;-84
2022/05/03 09:16:22;;;;;;;5.57;5.07;;;;;;;;;;4964828;28;20220;-84
2022/05/03 09:19:26;;;;;;;5.67;5.03;;;;;;;;;;4967298;28;20191;-84
2022/05/03 09:25:54;;;;;;;4.53;4.13;;;;;;;;;;4995766;28;20218;-83
2022/05/03 09:29:07;;;;;;;4.30;3.90;;;;;;;;;;4972384;28;20645;-84
2022/05/03 09:32:11;;;;;;;5.53;4.13;;;;;;;;;;4984398;28;20193;-84
2022/05/03 09:35:35;;;;;;;4.67;3.80;;;;;;;;;;4967759;28;20198;-84
2022/05/03 09:38:47;;;;;;;5.13;3.80;;;;;;;;;;4960452;28;20208;-85
2022/05/03 09:42:04;;;;;;;5.30;3.90;;;;;;;;;;4969136;28;20224;-85
2022/05/03 09:45:08;;;;;;;3.60;3.30;;;;;;;;;;4954707;28;20546;-85
2022/05/03 09:48:12;;;;;;;6.18;3.92;;;;;;;;;;4956458;29;20200;-85
2022/05/03 09:51:16;;;;;;;4.20;3.50;;;;;;;;;;4956474;29;20173;-85
2022/05/03 09:54:20;;;;;;;5.38;4.00;;;;;;;;;;4963393;28;20186;-85
2022/05/03 09:57:26;;;;;;;4.10;3.70;;;;;;;;;;4976920;28;20226;-85
2022/05/03 10:00:33;;;;;;;4.10;3.70;;;;;;;;;;4953150;28;20198;-85
2022/05/03 10:03:37;;;;;;;4.03;3.20;;;;;;;;;;4971798;28;20663;-85
2022/05/03 10:06:42;;;;;;;4.60;3.20;;;;;;;;;;4960707;28;20224;-85
2022/05/03 10:09:47;;;;;;;4.23;3.37;;;;;;;;;;4953334;28;20186;-85
2022/05/03 10:12:51;;;;;;;5.90;3.40;;;;;;;;;;4970788;28;20179;-86
2022/05/03 10:22:44;;;;;;;4.77;2.23;;;;;;;;;;4974009;28;20565;-85
2022/05/03 10:25:56;;;;;;;10.20;4.30;;;;;;;;;;4956373;28;20225;-85
2022/05/03 10:29:03;;;;;;;6.03;3.57;;;;;;;;;;4972093;28;20225;-86
2022/05/03 10:32:08;;;;;;;3.30;2.97;;;;;;;;;;4963415;28;20205;-85
2022/05/03 10:35:32;;;;;;;2.80;2.60;;;;;;;;;;4961003;28;20655;-85
2022/05/03 10:38:38;;;;;;;4.55;3.10;;;;;;;;;;4963467;28;20183;-85
2022/05/03 10:42:13;;;;;;;4.00;3.30;;;;;;;;;;4963750;28;20220;-86
2022/05/03 10:45:23;;;;;;;2.85;2.45;;;;;;;;;;4961663;28;20203;-85
2022/05/03 10:48:33;;;;;;;4.35;3.95;;;;;;;;;;4970039;28;20192;-85
2022/05/03 10:51:37;;;;;;;2.83;2.20;;;;;;;;;;4971782;28;20197;-85
2022/05/03 10:55:07;;;;;;;2.35;2.15;;;;;;;;;;4982414;28;20191;-85
2022/05/03 10:58:26;;;;;;;4.72;2.88;;;;;;;;;;4968008;28;20189;-85
2022/05/03 11:01:31;;;;;;;2.42;2.05;;;;;;;;;;4977488;28;20230;-85
2022/05/03 11:05:14;;;;;;;2.80;2.00;;;;;;;;;;4962812;28;20645;-86
2022/05/03 11:08:21;;;;;;;3.80;2.70;;;;;;;;;;4952352;28;20189;-85
2022/05/03 11:11:44;;;;;;;3.45;2.38;;;;;;;;;;4944203;29;20186;-85
2022/05/03 11:14:49;;;;;;;2.60;2.30;;;;;;;;;;4973440;28;20206;-85
2022/05/03 11:17:54;;;;;;;3.22;2.40;;;;;;;;;;4941059;28;20663;-85
2022/05/03 11:21:13;;;;;;;4.68;2.58;;;;;;;;;;4969813;28;20197;-85
2022/05/03 11:24:24;;;;;;;6.32;3.50;;;;;;;;;;4944139;29;20250;-85
2022/05/03 11:27:28;;;;;;;2.88;2.60;;;;;;;;;;4943560;29;20225;-85
2022/05/03 11:30:32;;;;;;;6.72;3.08;;;;;;;;;;4933351;28;20185;-85
2022/05/03 11:33:49;;;;;;;3.15;2.88;;;;;;;;;;4988917;28;20194;-85
2022/05/03 11:36:54;;;;;;;2.60;2.40;;;;;;;;;;4973633;28;20701;-85
2022/05/03 11:40:04;;;;;;;3.42;2.28;;;;;;;;;;4959655;28;20198;-85
2022/05/03 11:43:12;;;;;;;2.65;2.38;;;;;;;;;;4985191;28;20213;-85
2022/05/03 11:46:18;;;;;;;2.60;2.40;;;;;;;;;;4978677;28;20222;-86
2022/05/03 11:49:23;;;;;;;4.22;2.65;;;;;;;;;;4986729;28;20186;-85
2022/05/03 11:56:04;;;;;;;3.72;2.08;;;;;;;;;;4988462;28;20226;-85
2022/05/03 11:59:09;;;;;;;4.88;2.30;;;;;;;;;;4981085;28;20195;-85
2022/05/03 12:02:19;;;;;;;3.13;2.35;;;;;;;;;;4974794;28;20228;-87
2022/05/03 12:05:23;;;;;;;2.88;2.35;;;;;;;;;;4967235;28;20191;-86
2022/05/03 12:08:29;;;;;;;2.63;2.15;;;;;;;;;;4977259;28;20185;-87
2022/05/03 12:12:42;;;;;;;2.65;2.42;;;;;;;;;;4987510;28;20194;-86
2022/05/03 12:14:57;;;;;;;6.10;2.53;;;;;;;;;;4992534;28;20633;-87
2022/05/03 12:18:15;;;;;;;4.03;2.92;;;;;;;;;;4962310;28;20199;-87
2022/05/03 12:21:21;;;;;;;9.50;3.75;;;;;;;;;;4959448;28;20196;-87
2022/05/03 12:24:35;;;;;;;5.53;3.00;;;;;;;;;;4967815;28;20192;-86
2022/05/03 12:27:47;;;;;;;5.20;3.33;;;;;;;;;;4966851;28;20233;-87
2022/05/03 12:30:57;;;;;;;3.30;3.00;;;;;;;;;;4974643;28;20199;-86
2022/05/03 12:34:03;;;;;;;5.10;3.40;;;;;;;;;;4965620;28;20198;-86
2022/05/03 12:37:09;;;;;;;7.60;3.43;;;;;;;;;;4957607;28;20236;-86
2022/05/03 12:40:23;;;;;;;12.87;5.53;;;;;;;;;;4985977;28;20196;-86
2022/05/03 12:43:29;;;;;;;3.70;3.20;;;;;;;;;;4956095;28;20212;-86
2022/05/03 12:46:33;;;;;;;3.50;2.97;;;;;;;;;;4975338;28;20214;-86
2022/05/03 12:49:38;;;;;;;15.30;4.30;;;;;;;;;;4976332;28;20186;-86
2022/05/03 12:52:42;;;;;;;11.60;3.60;;;;;;;;;;4985464;28;20665;-84
2022/05/03 12:55:46;;;;;;;6.13;3.83;;;;;;;;;;4968904;28;20222;-84
2022/05/03 12:58:50;;;;;;;7.83;4.80;;;;;;;;;;4985037;28;20178;-85
2022/05/03 13:01:55;;;;;;;6.97;4.10;;;;;;;;;;4995885;28;20198;-85
2022/05/03 13:04:59;;;;;;;7.07;4.77;;;;;;;;;;4974279;28;20207;-85
2022/05/03 13:08:03;;;;;;;7.33;4.90;;;;;;;;;;4965073;28;20199;-85
2022/05/03 13:11:08;;;;;;;5.47;4.80;;;;;;;;;;4984750;28;20195;-86
2022/05/03 13:14:13;;;;;;;5.43;4.93;;;;;;;;;;4995551;28;20190;-86
2022/05/03 13:17:18;;;;;;;5.43;4.67;;;;;;;;;;4950471;28;20704;-86
2022/05/03 13:20:22;;;;;;;5.87;4.07;;;;;;;;;;4984202;28;20194;-85
2022/05/03 13:23:26;;;;;;;5.00;3.87;;;;;;;;;;4973886;28;20206;-85
2022/05/03 13:26:32;;;;;;;5.83;3.53;;;;;;;;;;4984623;28;20226;-84
2022/05/03 13:29:37;;;;;;;5.27;3.33;;;;;;;;;;4983403;28;20226;-86
2022/05/03 13:32:42;;;;;;;3.47;3.17;;;;;;;;;;4995807;28;20629;-86
2022/05/03 13:42:31;;;;;;;5.00;3.60;;;;;;;;;;4979915;28;20214;-86
2022/05/03 13:45:35;;;;;;;4.43;3.33;;;;;;;;;;4984382;28;20226;-86
2022/05/03 13:48:40;;;;;;;4.10;3.10;;;;;;;;;;4984421;28;20193;-86
2022/05/03 13:51:45;;;;;;;3.00;2.80;;;;;;;;;;4984343;28;20632;-86
2022/05/03 13:54:49;;;;;;;5.17;2.80;;;;;;;;;;4996012;28;20379;-86
2022/05/03 13:57:55;;;;;;;2.50;2.30;;;;;;;;;;4973093;28;20184;-86
2022/05/03 14:00:58;;;;;;;2.77;2.33;;;;;;;;;;4983930;28;20185;-87
2022/05/03 14:04:03;;;;;;;3.97;2.53;;;;;;;;;;4972622;28;20206;-86
2022/05/03 14:07:08;;;;;;;2.97;2.77;;;;;;;;;;4983674;28;20218;-86
2022/05/03 14:10:12;;;;;;;4.20;3.07;;;;;;;;;;4982837;28;20544;-86
2022/05/03 14:13:16;;;;;;;4.93;2.80;;;;;;;;;;4983675;28;20178;-86
2022/05/03 14:16:20;;;;;;;4.00;3.10;;;;;;;;;;4994600;28;20231;-86
2022/05/03 14:19:25;;;;;;;3.70;2.70;;;;;;;;;;4984810;28;20186;-85
2022/05/03 14:22:29;;;;;;;5.43;2.77;;;;;;;;;;4984745;28;20517;-85
2022/05/03 14:25:33;;;;;;;3.20;2.90;;;;;;;;;;4972623;28;20184;-85
2022/05/03 14:28:38;;;;;;;2.73;2.50;;;;;;;;;;4983361;28;20186;-85
2022/05/03 14:31:43;;;;;;;2.80;2.60;;;;;;;;;;4971115;28;20201;-85
2022/05/03 14:34:47;;;;;;;4.80;2.80;;;;;;;;;;4966114;28;20542;-85
2022/05/03 14:37:51;;;;;;;3.40;2.50;;;;;;;;;;4961269;28;20185;-84
2022/05/03 14:40:55;;;;;;;4.90;2.60;;;;;;;;;;4952486;28;20188;-84
2022/05/03 14:43:59;;;;;;;2.83;2.53;;;;;;;;;;4963462;28;20677;-84
2022/05/03 14:47:04;;;;;;;2.97;2.63;;;;;;;;;;4974780;28;20221;-84
2022/05/03 14:50:09;;;;;;;5.73;2.80;;;;;;;;;;4952919;28;20183;-84
2022/05/03 14:53:13;;;;;;;5.40;2.80;;;;;;;;;;4963579;28;20179;-84
2022/05/03 15:03:03;;;;;;;2.43;2.20;;;;;;;;;;4974964;28;20551;-84
2022/05/03 15:06:07;;;;;;;3.97;2.50;;;;;;;;;;4965366;28;20212;-84
2022/05/03 15:09:11;;;;;;;5.82;2.58;;;;;;;;;;4964799;28;20529;-84
2022/05/03 15:12:16;;;;;;;5.50;2.50;;;;;;;;;;4953199;28;20189;-83
2022/05/03 15:15:22;;;;;;;3.53;2.35;;;;;;;;;;4964069;28;20181;-83
2022/05/03 15:18:27;;;;;;;2.58;2.25;;;;;;;;;;4963742;28;20184;-83
2022/05/03 15:21:31;;;;;;;2.88;2.20;;;;;;;;;;4953195;28;20504;-83
2022/05/03 15:24:35;;;;;;;5.22;2.45;;;;;;;;;;4952138;28;20212;-86
2022/05/03 15:27:39;;;;;;;2.78;2.30;;;;;;;;;;4954151;28;20215;-84
2022/05/03 15:30:46;;;;;;;5.03;2.67;;;;;;;;;;4971243;28;20189;-84
2022/05/03 15:33:51;;;;;;;3.35;2.40;;;;;;;;;;4980736;28;20194;-84
2022/05/03 15:36:55;;;;;;;2.30;2.10;;;;;;;;;;4982315;28;20230;-84
2022/05/03 15:40:00;;;;;;;5.30;3.00;;;;;;;;;;4974528;28;20200;-85
2022/05/03 15:43:04;;;;;;;3.17;2.87;;;;;;;;;;4962787;28;20214;-85
2022/05/03 15:46:08;;;;;;;6.67;3.20;;;;;;;;;;4956313;28;20224;-85
2022/05/03 15:49:13;;;;;;;3.27;2.10;;;;;;;;;;4973829;28;20202;-85
2022/05/03 15:52:19;;;;;;;5.00;2.50;;;;;;;;;;4977329;28;20195;-85
2022/05/03 15:55:23;;;;;;;3.03;2.47;;;;;;;;;;4972973;28;20198;-84
2022/05/03 15:58:29;;;;;;;2.60;2.40;;;;;;;;;;4959235;28;20199;-84
2022/05/03 16:01:33;;;;;;;4.27;2.33;;;;;;;;;;4962550;28;20175;-83
2022/05/03 16:04:37;;;;;;;3.50;2.00;;;;;;;;;;4974439;28;20214;-84
2022/05/03 16:07:41;;;;;;;2.97;2.00;;;;;;;;;;4963153;28;20202;-84
2022/05/03 16:10:46;;;;;;;3.83;1.97;;;;;;;;;;4951865;28;20179;-83
2022/05/03 16:13:51;;;;;;;3.53;2.33;;;;;;;;;;4962773;28;20183;-83
2022/05/03 16:16:56;;;;;;;5.37;2.10;;;;;;;;;;4951355;28;20223;-84
2022/05/03 16:20:00;;;;;;;2.43;2.20;;;;;;;;;;4963677;28;20187;-83
2022/05/03 16:23:04;;;;;;;5.10;2.43;;;;;;;;;;4951508;28;20179;-84
2022/05/03 16:26:09;;;;;;;6.47;2.47;;;;;;;;;;4977410;28;20217;-84
2022/05/03 16:29:14;;;;;;;4.17;2.23;;;;;;;;;;4970229;28;20206;-84
2022/05/03 16:32:18;;;;;;;3.53;2.30;;;;;;;;;;4963718;28;20194;-83
2022/05/03 16:35:22;;;;;;;3.30;1.93;;;;;;;;;;4954815;28;20179;-85
2022/05/03 16:45:11;;;;;;;3.30;2.20;;;;;;;;;;4977756;28;20219;-84
2022/05/03 16:48:16;;;;;;;2.50;2.10;;;;;;;;;;4935757;29;20188;-84
2022/05/03 16:51:20;;;;;;;2.50;2.03;;;;;;;;;;4988976;28;20193;-85
2022/05/03 16:54:25;;;;;;;5.17;2.10;;;;;;;;;;4935573;29;20180;-84
2022/05/03 16:57:29;;;;;;;4.73;2.37;;;;;;;;;;4946405;29;20718;-84
2022/05/03 17:00:33;;;;;;;2.10;2.00;;;;;;;;;;4957329;29;20180;-84
2022/05/03 17:03:38;;;;;;;4.10;2.20;;;;;;;;;;4957162;29;20215;-84
2022/05/03 17:06:43;;;;;;;3.27;2.13;;;;;;;;;;4946487;29;20223;-84
2022/05/03 17:09:48;;;;;;;8.87;2.70;;;;;;;;;;4958819;28;20195;-84
2022/05/03 17:12:52;;;;;;;5.13;2.27;;;;;;;;;;4954023;28;20186;-84
2022/05/03 17:15:57;;;;;;;5.20;2.60;;;;;;;;;;4965827;28;20218;-83
2022/05/03 17:19:01;;;;;;;6.00;3.30;;;;;;;;;;4970292;28;20194;-83
2022/05/03 17:22:06;;;;;;;12.87;8.37;;;;;;;;;;4976856;28;20179;-83
2022/05/03 17:25:10;;;;;;;38.20;33.67;;;;;;;;;;4966159;28;20219;-83
2022/05/03 17:28:14;;;;;;;5.10;4.37;;;;;;;;;;4964621;28;20197;-83
2022/05/03 17:31:19;;;;;;;2.97;2.70;;;;;;;;;;4982790;28;20206;-83
2022/05/03 17:34:24;;;;;;;3.70;2.33;;;;;;;;;;4984915;28;20190;-83
2022/05/03 17:37:28;;;;;;;3.03;2.33;;;;;;;;;;4983973;28;20222;-83
2022/05/03 17:40:31;;;;;;;5.40;2.60;;;;;;;;;;4968820;28;20207;-83
2022/05/03 17:43:36;;;;;;;5.13;2.60;;;;;;;;;;4974662;28;20743;-83
2022/05/03 17:46:40;;;;;;;4.20;2.53;;;;;;;;;;4972124;28;20222;-84
2022/05/03 17:49:46;;;;;;;6.33;3.07;;;;;;;;;;4957572;29;20187;-83
2022/05/03 17:56:15;;;;;;;4.50;3.17;;;;;;;;;;4964673;28;20211;-84
2022/05/03 17:59:18;;;;;;;5.10;3.33;;;;;;;;;;4964777;28;20179;-84
2022/05/03 18:02:23;;;;;;;4.30;3.00;;;;;;;;;;4976357;28;20198;-84
2022/05/03 18:05:27;;;;;;;6.00;2.87;;;;;;;;;;4955925;28;20230;-83
2022/05/03 18:08:31;;;;;;;4.00;3.00;;;;;;;;;;4969403;28;20191;-83
2022/05/03 18:11:35;;;;;;;6.33;3.40;;;;;;;;;;4946784;29;20203;-83
2022/05/03 18:14:41;;;;;;;4.47;2.50;;;;;;;;;;4961507;28;20203;-87
2022/05/03 18:17:45;;;;;;;3.03;2.63;;;;;;;;;;4984742;28;20539;-84
2022/05/03 18:20:52;;;;;;;3.67;2.80;;;;;;;;;;4985235;28;20182;-84
2022/05/03 18:23:57;;;;;;;3.17;2.73;;;;;;;;;;4971907;28;20214;-83
2022/05/03 18:27:01;;;;;;;4.47;2.83;;;;;;;;;;4954093;28;20214;-84
2022/05/03 18:30:07;;;;;;;4.10;2.80;;;;;;;;;;4967161;28;20198;-84
2022/05/03 18:33:11;;;;;;;4.10;2.97;;;;;;;;;;4965573;28;20535;-84
2022/05/03 18:36:15;;;;;;;4.47;2.67;;;;;;;;;;4973666;28;20222;-84
2022/05/03 18:39:19;;;;;;;3.63;2.97;;;;;;;;;;4984708;28;20198;-84
2022/05/03 18:42:25;;;;;;;3.93;2.93;;;;;;;;;;4984529;28;20182;-84
2022/05/03 18:45:29;;;;;;;4.77;3.30;;;;;;;;;;4978333;28;20207;-84
2022/05/03 18:48:33;;;;;;;2.90;2.70;;;;;;;;;;4963742;28;20642;-84
2022/05/03 18:51:37;;;;;;;2.80;2.60;;;;;;;;;;4974731;28;20175;-84
2022/05/03 18:58:04;;;;;;;5.73;3.17;;;;;;;;;;4963469;28;20179;-83
2022/05/03 19:01:09;;;;;;;6.17;2.97;;;;;;;;;;4940676;28;20206;-83
2022/05/03 19:04:14;;;;;;;4.67;3.27;;;;;;;;;;4960952;28;20230;-83
2022/05/03 19:07:18;;;;;;;7.67;4.43;;;;;;;;;;4970117;28;20217;-85
2022/05/03 19:10:22;;;;;;;6.13;4.10;;;;;;;;;;4970941;28;20194;-86
2022/05/03 19:13:27;;;;;;;7.93;4.40;;;;;;;;;;4962949;28;20194;-86
2022/05/03 19:16:32;;;;;;;6.23;3.40;;;;;;;;;;4981892;28;20214;-86
2022/05/03 19:19:37;;;;;;;7.97;3.57;;;;;;;;;;4952077;28;20203;-86
2022/05/03 19:22:42;;;;;;;6.27;3.73;;;;;;;;;;4963048;28;20202;-86
2022/05/03 19:32:30;;;;;;;3.80;3.37;;;;;;;;;;4978715;28;20195;-85
2022/05/03 19:35:36;;;;;;;4.10;3.53;;;;;;;;;;4970664;28;20534;-85
2022/05/03 19:38:40;;;;;;;4.37;3.80;;;;;;;;;;4971227;28;20186;-84
2022/05/03 19:41:44;;;;;;;4.90;3.87;;;;;;;;;;4962901;28;20210;-84